• Join FlightAware (Why Join?)
  • Login
  • US Flag 
09:43AM EDT


 

Airport Tracker/Info


-or-


 

Live Flight TrackerFlight Track Log ✈ N725CD ✈ 09-May-2013 ✈ KFYV - KIXD

Flight Track Log - Related Links

Times and Time Zones

All times are in EDT time to prevent confusion due to time zone crossing. See the N725CD flight status page for this flight to view local times or setup timezone preferences in your user account.

Time Position Orientation Groundspeed Altitude Reporting Facility
EDT Latitude Longitude Course Direction KTS MPH feet Rate Location/Type
03:39PM 36.0036 -94.2281 348° North 124 143 3,700  Level Kansas City Center
03:40PM 36.0472 -94.2342 354° North 137 158 4,400 720 Climbing Kansas City Center
03:41PM 36.0914 -94.2414 352° North 149 171 5,200 720 Climbing Kansas City Center
03:42PM 36.1428 -94.2542 349° North 154 177 5,900 300 Climbing Kansas City Center
03:43PM 36.2781 -94.2254 348° North  Level FlightAware Approximate
03:43PM 36.1858 -94.2639 350° North 156 180 5,900  Level Kansas City Center
03:44PM 36.3242 -94.2378 348° North  Level FlightAware Approximate
03:44PM 36.2317 -94.2783 346° North 161 185 5,900  Level Kansas City Center
03:45PM 36.2789 -94.2892 350° North 166 191 6,000  Climbing Kansas City Center
03:46PM 36.3267 -94.3003 349° North 170 196 6,000  Level Kansas City Center
03:47PM 36.3761 -94.3114 350° North 174 200 6,000  Level Kansas City Center
03:49PM 36.4356 -94.3247 350° North 178 205 6,000  Level Kansas City Center
03:50PM 36.4839 -94.3364 349° North 178 205 6,000  Level Kansas City Center
03:51PM 36.5328 -94.3467 350° North 178 205 6,000  Level Kansas City Center
03:52PM 36.5819 -94.3583 349° North 178 205 6,000  Level Kansas City Center
03:53PM 36.6311 -94.3711 348° North 179 206 6,000  Level Kansas City Center
03:54PM 36.6794 -94.3808 351° North 178 205 6,000  Level Kansas City Center
03:55PM 36.7367 -94.3947 349° North 176 203 6,000  Level Kansas City Center
03:56PM 36.7864 -94.4053 350° North 177 204 6,000  Level Kansas City Center
03:57PM 36.8347 -94.4172 349° North 178 205 6,000  Level Kansas City Center
03:58PM 36.8833 -94.4286 349° North 178 205 6,000  Level Kansas City Center
03:59PM 36.9319 -94.4392 350° North 178 205 6,000  Level Kansas City Center
04:00PM 36.9797 -94.4511 349° North 176 203 6,000  Level Kansas City Center
04:01PM 37.0275 -94.4622 349° North 175 201 6,000  Level Kansas City Center
04:02PM 37.0858 -94.4750 350° North 176 203 6,000  Level Kansas City Center
04:03PM 37.1342 -94.4869 349° North 176 203 6,000  Level Kansas City Center
04:04PM 37.1822 -94.4994 348° North 177 204 6,000  Level Kansas City Center
04:05PM 37.2308 -94.5103 350° North 177 204 6,000  Level Kansas City Center
04:06PM 37.2803 -94.5206 351° North 178 205 6,000  Level Kansas City Center
04:07PM 37.3278 -94.5311 350° North 176 203 6,000  Level Kansas City Center
04:08PM 37.3850 -94.5467 348° North 175 201 6,000  Level Kansas City Center
04:09PM 37.4328 -94.5581 349° North 175 201 6,000  Level Kansas City Center
04:10PM 37.4806 -94.5681 351° North 174 200 6,000  Level Kansas City Center
04:11PM 37.5283 -94.5806 348° North 174 200 6,000  Level Kansas City Center
04:12PM 37.5761 -94.5914 350° North 174 200 6,000  Level Kansas City Center
04:13PM 37.6239 -94.6033 349° North 174 200 6,000  Level Kansas City Center
04:14PM 37.6803 -94.6169 349° North 173 199 6,000  Level Kansas City Center
04:15PM 37.7264 -94.6264 351° North 171 197 6,000  Level Kansas City Center
04:16PM 37.7714 -94.6394 347° North 173 199 6,000  Level Kansas City Center
04:17PM 37.8244 -94.6506 351° North 172 198 6,000  Level Kansas City Center
04:19PM 37.8700 -94.6606 350° North 173 199 6,000  Level Kansas City Center
04:20PM 37.9225 -94.6750 348° North 174 200 6,000  Level Kansas City Center
04:21PM 37.9678 -94.6839 351° North 173 199 6,000  Level Kansas City Center
04:22PM 38.0206 -94.6953 350° North 172 198 6,000  Level Kansas City Center
04:23PM 38.0642 -94.7064 349° North 170 196 6,000  Level Kansas City Center
04:24PM 38.1161 -94.7189 349° North 169 194 6,000  Level Kansas City Center
04:25PM 38.1608 -94.7306 348° North 170 196 6,000  Level Kansas City Center
04:26PM 38.2117 -94.7417 350° North 168 193 6,000  Level Kansas City Center
04:27PM 38.2553 -94.7525 349° North 167 192 6,000  Level Kansas City Center
04:28PM 38.3000 -94.7619 351° North 168 193 6,000 -480 Level Kansas City Center
04:29PM 38.3550 -94.7756 349° North 182 209 5,100 -840 Descending Kansas City Center
04:30PM 38.4044 -94.7858 351° North 187 215 4,300 -540 Descending Kansas City Center
04:31PM 38.4522 -94.7978 349° North 156 180 4,000 -180 Descending Kansas City Center
04:32PM 38.4947 -94.8094 348° North 165 190 4,000 -240 Level Kansas City Center
04:33PM 38.5475 -94.8225 349° North 172 198 3,600 -480 Descending Kansas City Center
04:34PM 38.5942 -94.8328 350° North 179 206 3,100 -300 Descending Kansas City Center
04:35PM 38.6456 -94.8461 349° North 166 191 3,000 -60 Descending Kansas City Center
04:36PM 38.6842 -94.8556 349° North 150 173 3,000 -60 Level Kansas City Center
04:37PM 38.7275 -94.8733 342° North 146 168 2,900 -300 Descending Kansas City Center
04:38PM 38.7583 -94.8911 336° Northwest 135 155 2,400 -600 Descending Kansas City Center
04:39PM 38.7917 -94.8914 360° North 108 124 1,700 -600 Descending Kansas City Center
04:40PM 38.8167 -94.8922 359° North 99 114 1,200 -540 Descending Kansas City Center